sensor_id;sensor_type;location;lat;lon;timestamp;pressure;altitude;pressure_sealevel;temperature;humidity
62942;BME280;49042;47.318;19.874;2023-03-26T00:02:22;99913.25;;;6.84;94.45
62942;BME280;49042;47.318;19.874;2023-03-26T00:05:24;99911.13;;;6.73;95.76
62942;BME280;49042;47.318;19.874;2023-03-26T00:08:26;99918.03;;;6.96;95.02
62942;BME280;49042;47.318;19.874;2023-03-26T00:11:28;99931.91;;;6.75;96.03
62942;BME280;49042;47.318;19.874;2023-03-26T00:14:30;99933.72;;;6.55;97.58
62942;BME280;49042;47.318;19.874;2023-03-26T00:17:33;99934.59;;;6.32;99.31
62942;BME280;49042;47.318;19.874;2023-03-26T00:20:35;99929.53;;;6.35;99.36
62942;BME280;49042;47.318;19.874;2023-03-26T00:23:38;99923.66;;;6.39;99.24
62942;BME280;49042;47.318;19.874;2023-03-26T00:26:42;99920.06;;;6.36;99.31
62942;BME280;49042;47.318;19.874;2023-03-26T00:29:45;99917.41;;;6.34;99.21
62942;BME280;49042;47.318;19.874;2023-03-26T00:32:48;99918.63;;;6.21;99.01
62942;BME280;49042;47.318;19.874;2023-03-26T00:35:55;99917.19;;;6.08;99.30
62942;BME280;49042;47.318;19.874;2023-03-26T00:38:59;99910.06;;;6.02;98.63
62942;BME280;49042;47.318;19.874;2023-03-26T00:42:02;99908.28;;;6.01;98.27
62942;BME280;49042;47.318;19.874;2023-03-26T00:45:07;99909.19;;;6.02;97.92
62942;BME280;49042;47.318;19.874;2023-03-26T00:48:09;99916.91;;;6.00;97.60
62942;BME280;49042;47.318;19.874;2023-03-26T00:51:16;99911.41;;;5.92;97.31
62942;BME280;49042;47.318;19.874;2023-03-26T00:54:18;99919.66;;;5.83;97.53
62942;BME280;49042;47.318;19.874;2023-03-26T00:57:20;99914.94;;;6.16;96.08
62942;BME280;49042;47.318;19.874;2023-03-26T01:00:41;99907.88;;;5.90;96.31
62942;BME280;49042;47.318;19.874;2023-03-26T01:03:44;99908.44;;;6.04;95.07
62942;BME280;49042;47.318;19.874;2023-03-26T01:07:15;99912.59;;;6.22;94.37
62942;BME280;49042;47.318;19.874;2023-03-26T01:10:23;99903.97;;;6.21;93.59
62942;BME280;49042;47.318;19.874;2023-03-26T01:13:24;99903.88;;;6.41;92.42
62942;BME280;49042;47.318;19.874;2023-03-26T01:16:30;99906.12;;;6.10;93.75
62942;BME280;49042;47.318;19.874;2023-03-26T01:23:01;99897.06;;;5.79;94.34
62942;BME280;49042;47.318;19.874;2023-03-26T01:26:17;99897.06;;;5.38;96.69
62942;BME280;49042;47.318;19.874;2023-03-26T01:30:15;99887.34;;;5.32;97.49
62942;BME280;49042;47.318;19.874;2023-03-26T01:33:10;99893.91;;;5.65;95.64
62942;BME280;49042;47.318;19.874;2023-03-26T01:39:53;99885.44;;;5.48;96.29
62942;BME280;49042;47.318;19.874;2023-03-26T01:46:24;99881.09;;;5.68;94.24
62942;BME280;49042;47.318;19.874;2023-03-26T01:49:28;99878.69;;;5.73;93.97
62942;BME280;49042;47.318;19.874;2023-03-26T01:52:30;99891.44;;;5.68;94.18
62942;BME280;49042;47.318;19.874;2023-03-26T01:55:55;99894.16;;;5.71;93.65
62942;BME280;49042;47.318;19.874;2023-03-26T01:59:05;99889.84;;;5.30;94.81
62942;BME280;49042;47.318;19.874;2023-03-26T02:02:14;99897.81;;;5.35;94.68
62942;BME280;49042;47.318;19.874;2023-03-26T02:05:23;99887.69;;;5.40;94.73
62942;BME280;49042;47.318;19.874;2023-03-26T02:08:37;99883.72;;;5.28;94.72
62942;BME280;49042;47.318;19.874;2023-03-26T02:11:42;99886.91;;;5.42;94.69
62942;BME280;49042;47.318;19.874;2023-03-26T02:14:45;99891.41;;;5.46;93.87
62942;BME280;49042;47.318;19.874;2023-03-26T02:17:47;99883.31;;;5.39;93.99
62942;BME280;49042;47.318;19.874;2023-03-26T02:20:51;99896.19;;;4.97;96.17
62942;BME280;49042;47.318;19.874;2023-03-26T02:23:56;99894.41;;;4.96;96.69
62942;BME280;49042;47.318;19.874;2023-03-26T02:27:04;99894.72;;;4.84;97.11
62942;BME280;49042;47.318;19.874;2023-03-26T02:30:11;99896.63;;;4.88;96.88
62942;BME280;49042;47.318;19.874;2023-03-26T02:33:13;99902.44;;;4.64;98.67
62942;BME280;49042;47.318;19.874;2023-03-26T02:36:15;99891.41;;;5.07;96.94
62942;BME280;49042;47.318;19.874;2023-03-26T02:39:19;99891.78;;;4.95;97.12
62942;BME280;49042;47.318;19.874;2023-03-26T02:42:21;99886.47;;;5.11;95.94
62942;BME280;49042;47.318;19.874;2023-03-26T02:45:23;99890.00;;;4.93;95.98
62942;BME280;49042;47.318;19.874;2023-03-26T02:48:24;99889.09;;;5.13;95.12
62942;BME280;49042;47.318;19.874;2023-03-26T02:51:26;99897.69;;;5.12;94.88
62942;BME280;49042;47.318;19.874;2023-03-26T02:54:29;99884.94;;;5.17;94.74
62942;BME280;49042;47.318;19.874;2023-03-26T02:57:30;99895.78;;;5.28;93.53
62942;BME280;49042;47.318;19.874;2023-03-26T03:00:33;99896.06;;;5.14;95.07
62942;BME280;49042;47.318;19.874;2023-03-26T03:03:35;99896.53;;;5.05;95.46
62942;BME280;49042;47.318;19.874;2023-03-26T03:06:38;99901.91;;;5.10;94.91
62942;BME280;49042;47.318;19.874;2023-03-26T03:09:40;99888.44;;;5.17;94.12
62942;BME280;49042;47.318;19.874;2023-03-26T03:12:42;99894.13;;;5.10;94.13
62942;BME280;49042;47.318;19.874;2023-03-26T03:15:44;99892.72;;;4.58;97.00
62942;BME280;49042;47.318;19.874;2023-03-26T03:18:46;99892.75;;;4.40;98.74
62942;BME280;49042;47.318;19.874;2023-03-26T03:21:55;99892.13;;;4.64;97.91
62942;BME280;49042;47.318;19.874;2023-03-26T03:24:56;99900.63;;;4.43;98.97
62942;BME280;49042;47.318;19.874;2023-03-26T03:28:00;99890.94;;;4.57;98.29
62942;BME280;49042;47.318;19.874;2023-03-26T03:31:02;99902.59;;;4.67;97.63
62942;BME280;49042;47.318;19.874;2023-03-26T03:34:05;99894.97;;;5.09;95.90
62942;BME280;49042;47.318;19.874;2023-03-26T03:37:07;99896.81;;;5.11;94.42
62942;BME280;49042;47.318;19.874;2023-03-26T03:40:09;99892.09;;;5.02;95.23
62942;BME280;49042;47.318;19.874;2023-03-26T03:43:11;99890.78;;;5.12;94.77
62942;BME280;49042;47.318;19.874;2023-03-26T03:46:13;99883.34;;;5.19;94.43
62942;BME280;49042;47.318;19.874;2023-03-26T03:49:14;99883.47;;;5.22;93.92
62942;BME280;49042;47.318;19.874;2023-03-26T03:52:16;99882.03;;;5.29;93.58
62942;BME280;49042;47.318;19.874;2023-03-26T03:55:18;99880.50;;;5.34;93.23
62942;BME280;49042;47.318;19.874;2023-03-26T03:58:21;99874.28;;;5.09;93.67
62942;BME280;49042;47.318;19.874;2023-03-26T04:01:23;99885.78;;;4.57;95.88
62942;BME280;49042;47.318;19.874;2023-03-26T04:04:25;99894.13;;;4.70;96.11
62942;BME280;49042;47.318;19.874;2023-03-26T04:07:28;99892.91;;;4.81;94.81
62942;BME280;49042;47.318;19.874;2023-03-26T04:10:33;99896.88;;;4.36;97.43
62942;BME280;49042;47.318;19.874;2023-03-26T04:13:35;99904.66;;;4.56;95.59
62942;BME280;49042;47.318;19.874;2023-03-26T04:16:36;99903.34;;;4.65;95.84
62942;BME280;49042;47.318;19.874;2023-03-26T04:19:39;99906.88;;;4.67;95.48
62942;BME280;49042;47.318;19.874;2023-03-26T04:22:42;99902.47;;;4.84;94.29
62942;BME280;49042;47.318;19.874;2023-03-26T04:25:47;99910.81;;;4.58;94.54
62942;BME280;49042;47.318;19.874;2023-03-26T04:28:50;99911.63;;;4.57;96.30
62942;BME280;49042;47.318;19.874;2023-03-26T04:31:55;99903.31;;;4.45;96.51
62942;BME280;49042;47.318;19.874;2023-03-26T04:35:07;99899.97;;;4.47;96.04
62942;BME280;49042;47.318;19.874;2023-03-26T04:38:10;99912.75;;;4.44;96.57
62942;BME280;49042;47.318;19.874;2023-03-26T04:41:13;99917.75;;;4.23;98.50
62942;BME280;49042;47.318;19.874;2023-03-26T04:44:15;99917.16;;;4.28;99.07
62942;BME280;49042;47.318;19.874;2023-03-26T04:47:17;99909.41;;;4.65;97.48
62942;BME280;49042;47.318;19.874;2023-03-26T04:50:19;99910.28;;;4.66;97.02
62942;BME280;49042;47.318;19.874;2023-03-26T04:53:21;99893.72;;;5.00;96.03
62942;BME280;49042;47.318;19.874;2023-03-26T04:59:31;99912.53;;;5.36;93.45
62942;BME280;49042;47.318;19.874;2023-03-26T05:02:35;99907.25;;;5.54;91.80
62942;BME280;49042;47.318;19.874;2023-03-26T05:05:40;99901.72;;;5.88;90.98
62942;BME280;49042;47.318;19.874;2023-03-26T05:08:42;99915.56;;;5.88;89.69
62942;BME280;49042;47.318;19.874;2023-03-26T05:11:43;99910.53;;;5.50;91.42
62942;BME280;49042;47.318;19.874;2023-03-26T05:14:45;99908.41;;;5.61;90.67
62942;BME280;49042;47.318;19.874;2023-03-26T05:17:47;99920.66;;;5.45;91.84
62942;BME280;49042;47.318;19.874;2023-03-26T05:20:49;99919.84;;;5.46;92.22
62942;BME280;49042;47.318;19.874;2023-03-26T05:23:51;99923.28;;;5.25;94.45
62942;BME280;49042;47.318;19.874;2023-03-26T05:26:52;99932.84;;;5.48;93.11
62942;BME280;49042;47.318;19.874;2023-03-26T05:29:59;99925.41;;;5.56;92.54
62942;BME280;49042;47.318;19.874;2023-03-26T05:33:01;99926.66;;;5.24;93.82
62942;BME280;49042;47.318;19.874;2023-03-26T05:36:08;99929.88;;;5.39;93.29
62942;BME280;49042;47.318;19.874;2023-03-26T05:39:13;99918.22;;;5.49;93.54
62942;BME280;49042;47.318;19.874;2023-03-26T05:42:15;99915.56;;;5.88;92.17
62942;BME280;49042;47.318;19.874;2023-03-26T05:45:17;99918.44;;;6.16;91.43
62942;BME280;49042;47.318;19.874;2023-03-26T05:48:19;99924.37;;;6.14;91.21
62942;BME280;49042;47.318;19.874;2023-03-26T05:51:22;99921.50;;;6.07;91.76
62942;BME280;49042;47.318;19.874;2023-03-26T05:54:23;99917.94;;;6.25;91.20
62942;BME280;49042;47.318;19.874;2023-03-26T05:57:28;99922.56;;;6.11;92.01
62942;BME280;49042;47.318;19.874;2023-03-26T06:00:30;99917.28;;;6.31;90.98
62942;BME280;49042;47.318;19.874;2023-03-26T06:03:36;99920.66;;;6.51;89.65
62942;BME280;49042;47.318;19.874;2023-03-26T06:06:39;99922.50;;;6.77;88.86
62942;BME280;49042;47.318;19.874;2023-03-26T06:09:40;99918.88;;;6.96;88.34
62942;BME280;49042;47.318;19.874;2023-03-26T06:12:42;99924.44;;;7.31;85.77
62942;BME280;49042;47.318;19.874;2023-03-26T06:15:44;99920.28;;;7.87;83.53
62942;BME280;49042;47.318;19.874;2023-03-26T06:18:46;99911.59;;;8.68;80.04
62942;BME280;49042;47.318;19.874;2023-03-26T06:22:00;99905.09;;;9.46;76.26
62942;BME280;49042;47.318;19.874;2023-03-26T06:25:02;99899.09;;;10.56;69.09
62942;BME280;49042;47.318;19.874;2023-03-26T06:28:04;99911.06;;;11.80;62.29
62942;BME280;49042;47.318;19.874;2023-03-26T06:31:06;99906.47;;;12.78;56.03
62942;BME280;49042;47.318;19.874;2023-03-26T06:34:08;99911.56;;;14.41;50.92
62942;BME280;49042;47.318;19.874;2023-03-26T06:37:09;99906.69;;;15.12;48.86
62942;BME280;49042;47.318;19.874;2023-03-26T06:40:11;99911.19;;;16.51;45.16
62942;BME280;49042;47.318;19.874;2023-03-26T06:43:16;99924.37;;;16.37;44.39
62942;BME280;49042;47.318;19.874;2023-03-26T06:46:17;99915.34;;;17.21;42.10
62942;BME280;49042;47.318;19.874;2023-03-26T06:49:21;99917.03;;;17.38;42.12
62942;BME280;49042;47.318;19.874;2023-03-26T06:52:23;99920.34;;;17.67;39.88
62942;BME280;49042;47.318;19.874;2023-03-26T06:55:25;99912.84;;;18.34;37.94
62942;BME280;49042;47.318;19.874;2023-03-26T06:58:28;99918.06;;;18.38;37.80
62942;BME280;49042;47.318;19.874;2023-03-26T07:01:30;99923.09;;;19.36;35.75
62942;BME280;49042;47.318;19.874;2023-03-26T07:04:31;99914.06;;;19.52;34.55
62942;BME280;49042;47.318;19.874;2023-03-26T07:07:33;99906.72;;;21.97;31.42
62942;BME280;49042;47.318;19.874;2023-03-26T07:10:46;99902.84;;;23.39;28.74
62942;BME280;49042;47.318;19.874;2023-03-26T07:13:47;99901.09;;;22.10;29.89
62942;BME280;49042;47.318;19.874;2023-03-26T07:16:50;99901.69;;;22.21;29.63
62942;BME280;49042;47.318;19.874;2023-03-26T07:19:52;99906.72;;;22.32;29.82
62942;BME280;49042;47.318;19.874;2023-03-26T07:22:55;99901.13;;;23.92;27.23
62942;BME280;49042;47.318;19.874;2023-03-26T07:25:57;99905.56;;;23.93;26.11
62942;BME280;49042;47.318;19.874;2023-03-26T07:29:03;99901.13;;;24.71;25.78
62942;BME280;49042;47.318;19.874;2023-03-26T07:38:50;99907.84;;;24.32;26.23
62942;BME280;49042;47.318;19.874;2023-03-26T07:48:25;99908.41;;;16.98;37.39
62942;BME280;49042;47.318;19.874;2023-03-26T07:51:28;99896.31;;;16.23;39.53
62942;BME280;49042;47.318;19.874;2023-03-26T07:54:30;99902.25;;;14.93;41.50
62942;BME280;49042;47.318;19.874;2023-03-26T08:00:41;99911.63;;;13.48;46.19
62942;BME280;49042;47.318;19.874;2023-03-26T08:20:31;99906.00;;;26.20;23.88
62942;BME280;49042;47.318;19.874;2023-03-26T08:27:39;99901.09;;;24.73;25.65
62942;BME280;49042;47.318;19.874;2023-03-26T08:30:43;99910.06;;;27.49;22.36
62942;BME280;49042;47.318;19.874;2023-03-26T08:33:44;99913.31;;;28.11;21.53
62942;BME280;49042;47.318;19.874;2023-03-26T08:36:46;99906.12;;;27.39;22.25
62942;BME280;49042;47.318;19.874;2023-03-26T08:39:48;99915.50;;;25.39;24.48
62942;BME280;49042;47.318;19.874;2023-03-26T08:43:15;99913.59;;;26.09;24.01
62942;BME280;49042;47.318;19.874;2023-03-26T09:20:42;99894.00;;;17.64;35.61
62942;BME280;49042;47.318;19.874;2023-03-26T09:27:35;99889.22;;;15.34;40.47
62942;BME280;49042;47.318;19.874;2023-03-26T09:31:01;99883.94;;;15.12;40.99
62942;BME280;49042;47.318;19.874;2023-03-26T09:37:49;99895.50;;;13.95;42.21
62942;BME280;49042;47.318;19.874;2023-03-26T09:41:09;99890.84;;;13.64;42.61
62942;BME280;49042;47.318;19.874;2023-03-26T09:44:56;99887.19;;;13.49;43.39
62942;BME280;49042;47.318;19.874;2023-03-26T10:01:28;99862.03;;;22.15;27.70
62942;BME280;49042;47.318;19.874;2023-03-26T10:04:35;99854.72;;;20.69;29.91
62942;BME280;49042;47.318;19.874;2023-03-26T10:11:25;99853.22;;;18.07;34.27
62942;BME280;49042;47.318;19.874;2023-03-26T10:14:40;99844.09;;;17.42;35.13
62942;BME280;49042;47.318;19.874;2023-03-26T10:21:42;99835.63;;;16.75;35.83
62942;BME280;49042;47.318;19.874;2023-03-26T10:29:10;99825.22;;;16.47;36.37
62942;BME280;49042;47.318;19.874;2023-03-26T10:45:20;99790.16;;;16.38;38.62
62942;BME280;49042;47.318;19.874;2023-03-26T10:52:03;99778.81;;;16.02;39.00
62942;BME280;49042;47.318;19.874;2023-03-26T10:58:28;99758.59;;;16.31;37.85
62942;BME280;49042;47.318;19.874;2023-03-26T11:05:19;99749.00;;;16.23;37.85
62942;BME280;49042;47.318;19.874;2023-03-26T11:14:57;99743.00;;;15.44;40.01
62942;BME280;49042;47.318;19.874;2023-03-26T11:18:17;99748.19;;;14.98;39.87
62942;BME280;49042;47.318;19.874;2023-03-26T11:31:39;99746.34;;;14.64;39.92
62942;BME280;49042;47.318;19.874;2023-03-26T11:34:59;99737.69;;;14.95;41.35
62942;BME280;49042;47.318;19.874;2023-03-26T11:38:25;99735.00;;;14.81;41.13
62942;BME280;49042;47.318;19.874;2023-03-26T11:41:29;99730.56;;;14.60;41.88
62942;BME280;49042;47.318;19.874;2023-03-26T11:44:40;99726.06;;;14.15;42.61
62942;BME280;49042;47.318;19.874;2023-03-26T11:47:51;99719.87;;;14.05;43.69
62942;BME280;49042;47.318;19.874;2023-03-26T11:51:07;99733.44;;;13.39;46.22
62942;BME280;49042;47.318;19.874;2023-03-26T11:54:12;99732.97;;;12.89;50.88
62942;BME280;49042;47.318;19.874;2023-03-26T11:57:19;99730.53;;;12.25;67.19
62942;BME280;49042;47.318;19.874;2023-03-26T12:00:23;99715.88;;;11.72;74.33
62942;BME280;49042;47.318;19.874;2023-03-26T12:03:28;99716.53;;;11.59;75.90
62942;BME280;49042;47.318;19.874;2023-03-26T12:06:30;99712.94;;;11.50;78.16
62942;BME280;49042;47.318;19.874;2023-03-26T12:09:33;99704.56;;;11.75;76.33
62942;BME280;49042;47.318;19.874;2023-03-26T12:12:38;99695.34;;;12.74;73.82
62942;BME280;49042;47.318;19.874;2023-03-26T12:15:42;99687.16;;;13.38;69.09
62942;BME280;49042;47.318;19.874;2023-03-26T12:18:46;99682.09;;;13.63;65.91
62942;BME280;49042;47.318;19.874;2023-03-26T12:21:57;99672.53;;;13.70;64.80
62942;BME280;49042;47.318;19.874;2023-03-26T12:25:02;99663.75;;;13.60;62.25
62942;BME280;49042;47.318;19.874;2023-03-26T12:28:15;99664.97;;;14.49;63.18
62942;BME280;49042;47.318;19.874;2023-03-26T12:31:18;99668.50;;;14.88;57.03
62942;BME280;49042;47.318;19.874;2023-03-26T12:34:22;99655.44;;;15.12;58.17
62942;BME280;49042;47.318;19.874;2023-03-26T12:37:39;99646.59;;;15.48;56.44
62942;BME280;49042;47.318;19.874;2023-03-26T12:40:45;99635.03;;;16.13;53.25
62942;BME280;49042;47.318;19.874;2023-03-26T12:43:52;99627.03;;;16.29;51.32
62942;BME280;49042;47.318;19.874;2023-03-26T12:57:23;99618.88;;;16.68;48.63
62942;BME280;49042;47.318;19.874;2023-03-26T13:07:28;99597.44;;;15.86;47.71
62942;BME280;49042;47.318;19.874;2023-03-26T13:14:33;99580.72;;;15.98;44.34
62942;BME280;49042;47.318;19.874;2023-03-26T13:17:56;99583.66;;;15.07;47.71
62942;BME280;49042;47.318;19.874;2023-03-26T13:21:11;99572.13;;;15.57;48.51
62942;BME280;49042;47.318;19.874;2023-03-26T13:28:05;99565.16;;;15.49;47.41
62942;BME280;49042;47.318;19.874;2023-03-26T13:34:59;99546.91;;;14.97;49.45
62942;BME280;49042;47.318;19.874;2023-03-26T13:38:14;99544.25;;;15.12;48.87
62942;BME280;49042;47.318;19.874;2023-03-26T13:45:00;99528.53;;;14.97;49.66
62942;BME280;49042;47.318;19.874;2023-03-26T13:48:13;99530.16;;;15.43;50.15
62942;BME280;49042;47.318;19.874;2023-03-26T13:51:24;99529.84;;;16.02;46.51
62942;BME280;49042;47.318;19.874;2023-03-26T13:54:33;99528.37;;;15.46;46.29
62942;BME280;49042;47.318;19.874;2023-03-26T13:57:47;99514.53;;;14.43;50.16
62942;BME280;49042;47.318;19.874;2023-03-26T14:04:22;99505.81;;;14.33;51.28
62942;BME280;49042;47.318;19.874;2023-03-26T14:07:35;99505.78;;;14.08;50.81
62942;BME280;49042;47.318;19.874;2023-03-26T14:10:43;99497.03;;;14.72;48.49
62942;BME280;49042;47.318;19.874;2023-03-26T14:13:54;99500.19;;;15.83;42.52
62942;BME280;49042;47.318;19.874;2023-03-26T14:17:03;99496.63;;;15.89;42.92
62942;BME280;49042;47.318;19.874;2023-03-26T14:27:00;99484.19;;;16.16;43.48
62942;BME280;49042;47.318;19.874;2023-03-26T14:47:16;99440.44;;;16.04;41.97
62942;BME280;49042;47.318;19.874;2023-03-26T14:53:50;99447.25;;;16.30;37.25
62942;BME280;49042;47.318;19.874;2023-03-26T15:04:06;99421.97;;;17.02;33.99
62942;BME280;49042;47.318;19.874;2023-03-26T15:11:33;99406.66;;;18.47;30.81
62942;BME280;49042;47.318;19.874;2023-03-26T15:29:31;99396.28;;;20.73;26.99
62942;BME280;49042;47.318;19.874;2023-03-26T15:32:45;99383.91;;;20.74;26.24
62942;BME280;49042;47.318;19.874;2023-03-26T15:36:15;99376.66;;;18.97;28.14
62942;BME280;49042;47.318;19.874;2023-03-26T15:39:44;99366.03;;;18.05;29.42
62942;BME280;49042;47.318;19.874;2023-03-26T15:43:13;99370.31;;;16.88;31.20
62942;BME280;49042;47.318;19.874;2023-03-26T15:49:52;99360.63;;;16.08;31.30
62942;BME280;49042;47.318;19.874;2023-03-26T15:56:43;99350.34;;;15.78;33.72
62942;BME280;49042;47.318;19.874;2023-03-26T16:03:31;99346.22;;;15.43;33.46
62942;BME280;49042;47.318;19.874;2023-03-26T16:06:52;99338.44;;;15.27;33.00
62942;BME280;49042;47.318;19.874;2023-03-26T16:16:51;99337.75;;;14.87;34.84
62942;BME280;49042;47.318;19.874;2023-03-26T16:20:19;99331.66;;;14.80;34.17
62942;BME280;49042;47.318;19.874;2023-03-26T16:23:33;99328.25;;;14.54;35.68
62942;BME280;49042;47.318;19.874;2023-03-26T16:30:30;99323.03;;;14.39;35.77
62942;BME280;49042;47.318;19.874;2023-03-26T16:33:37;99319.59;;;14.26;35.07
62942;BME280;49042;47.318;19.874;2023-03-26T16:36:44;99310.00;;;14.17;37.92
62942;BME280;49042;47.318;19.874;2023-03-26T16:39:50;99305.66;;;13.97;36.48
62942;BME280;49042;47.318;19.874;2023-03-26T16:46:52;99292.56;;;13.49;37.12
62942;BME280;49042;47.318;19.874;2023-03-26T16:50:12;99287.31;;;13.75;38.20
62942;BME280;49042;47.318;19.874;2023-03-26T16:59:52;99276.81;;;13.20;39.95
62942;BME280;49042;47.318;19.874;2023-03-26T17:07:06;99268.78;;;12.47;41.15
62942;BME280;49042;47.318;19.874;2023-03-26T17:10:23;99261.78;;;12.43;41.66
62942;BME280;49042;47.318;19.874;2023-03-26T17:13:54;99267.00;;;12.41;41.28
62942;BME280;49042;47.318;19.874;2023-03-26T17:17:47;99270.44;;;12.29;41.88
62942;BME280;49042;47.318;19.874;2023-03-26T17:37:42;99275.06;;;11.44;45.42
62942;BME280;49042;47.318;19.874;2023-03-26T17:40:57;99274.09;;;11.34;46.31
62942;BME280;49042;47.318;19.874;2023-03-26T17:44:41;99274.69;;;11.02;46.26
62942;BME280;49042;47.318;19.874;2023-03-26T17:48:07;99273.81;;;11.06;46.47
62942;BME280;49042;47.318;19.874;2023-03-26T17:54:53;99277.06;;;10.81;48.30
62942;BME280;49042;47.318;19.874;2023-03-26T17:57:59;99277.94;;;10.82;47.69
62942;BME280;49042;47.318;19.874;2023-03-26T18:01:28;99270.00;;;10.73;47.97
62942;BME280;49042;47.318;19.874;2023-03-26T18:04:36;99263.84;;;10.67;48.31
62942;BME280;49042;47.318;19.874;2023-03-26T18:21:36;99259.16;;;10.39;49.47
62942;BME280;49042;47.318;19.874;2023-03-26T18:24:39;99253.87;;;10.33;48.77
62942;BME280;49042;47.318;19.874;2023-03-26T18:27:43;99246.72;;;10.18;47.52
62942;BME280;49042;47.318;19.874;2023-03-26T18:30:47;99240.66;;;10.17;47.18
62942;BME280;49042;47.318;19.874;2023-03-26T18:33:54;99238.91;;;10.18;47.17
62942;BME280;49042;47.318;19.874;2023-03-26T18:37:18;99243.00;;;10.00;45.83
62942;BME280;49042;47.318;19.874;2023-03-26T18:40:29;99247.41;;;10.04;45.91
62942;BME280;49042;47.318;19.874;2023-03-26T18:43:34;99243.00;;;10.00;46.52
62942;BME280;49042;47.318;19.874;2023-03-26T18:46:46;99242.69;;;10.44;46.19
62942;BME280;49042;47.318;19.874;2023-03-26T18:49:53;99241.00;;;10.47;46.04
62942;BME280;49042;47.318;19.874;2023-03-26T18:52:57;99238.53;;;10.57;46.58
62942;BME280;49042;47.318;19.874;2023-03-26T18:59:42;99242.62;;;10.39;46.32
62942;BME280;49042;47.318;19.874;2023-03-26T19:02:48;99241.97;;;10.54;45.32
62942;BME280;49042;47.318;19.874;2023-03-26T19:06:06;99239.53;;;10.68;47.57
62942;BME280;49042;47.318;19.874;2023-03-26T19:09:11;99233.69;;;10.91;46.40
62942;BME280;49042;47.318;19.874;2023-03-26T19:12:32;99238.06;;;10.96;46.18
62942;BME280;49042;47.318;19.874;2023-03-26T19:15:36;99230.94;;;10.77;45.47
62942;BME280;49042;47.318;19.874;2023-03-26T19:18:42;99228.31;;;10.76;45.45
62942;BME280;49042;47.318;19.874;2023-03-26T19:21:45;99218.00;;;10.87;44.21
62942;BME280;49042;47.318;19.874;2023-03-26T19:24:51;99216.34;;;10.95;44.81
62942;BME280;49042;47.318;19.874;2023-03-26T19:27:56;99200.78;;;11.05;44.08
62942;BME280;49042;47.318;19.874;2023-03-26T19:31:21;99197.38;;;11.17;44.35
62942;BME280;49042;47.318;19.874;2023-03-26T19:34:37;99197.31;;;11.10;44.07
62942;BME280;49042;47.318;19.874;2023-03-26T19:37:49;99189.53;;;11.13;44.34
62942;BME280;49042;47.318;19.874;2023-03-26T19:40:57;99179.94;;;11.09;44.70
62942;BME280;49042;47.318;19.874;2023-03-26T19:44:03;99179.88;;;11.03;44.49
62942;BME280;49042;47.318;19.874;2023-03-26T19:47:14;99176.38;;;11.01;44.64
62942;BME280;49042;47.318;19.874;2023-03-26T19:51:01;99173.78;;;11.01;44.71
62942;BME280;49042;47.318;19.874;2023-03-26T19:54:14;99172.84;;;10.94;45.04
62942;BME280;49042;47.318;19.874;2023-03-26T19:57:17;99159.81;;;10.94;44.58
62942;BME280;49042;47.318;19.874;2023-03-26T20:00:20;99155.37;;;10.88;45.17
62942;BME280;49042;47.318;19.874;2023-03-26T20:03:28;99147.59;;;10.90;44.93
62942;BME280;49042;47.318;19.874;2023-03-26T20:06:32;99143.31;;;10.95;44.88
62942;BME280;49042;47.318;19.874;2023-03-26T20:09:44;99139.84;;;11.02;44.66
62942;BME280;49042;47.318;19.874;2023-03-26T20:12:54;99130.31;;;11.05;44.51
62942;BME280;49042;47.318;19.874;2023-03-26T20:19:14;99120.75;;;11.07;44.48
62942;BME280;49042;47.318;19.874;2023-03-26T20:22:17;99122.47;;;11.01;45.01
62942;BME280;49042;47.318;19.874;2023-03-26T20:25:32;99112.84;;;10.96;44.95
62942;BME280;49042;47.318;19.874;2023-03-26T20:28:35;99100.66;;;10.93;45.10
62942;BME280;49042;47.318;19.874;2023-03-26T20:31:50;99096.28;;;10.89;45.36
62942;BME280;49042;47.318;19.874;2023-03-26T20:34:52;99091.09;;;10.90;45.58
62942;BME280;49042;47.318;19.874;2023-03-26T20:37:55;99079.78;;;10.90;45.58
62942;BME280;49042;47.318;19.874;2023-03-26T20:40:57;99071.16;;;11.02;45.47
62942;BME280;49042;47.318;19.874;2023-03-26T20:44:00;99072.84;;;10.97;45.61
62942;BME280;49042;47.318;19.874;2023-03-26T20:47:05;99059.84;;;10.98;45.55
62942;BME280;49042;47.318;19.874;2023-03-26T20:50:10;99050.22;;;10.96;45.82
62942;BME280;49042;47.318;19.874;2023-03-26T20:53:15;99038.94;;;10.94;45.76
62942;BME280;49042;47.318;19.874;2023-03-26T20:56:19;99030.25;;;10.96;45.90
62942;BME280;49042;47.318;19.874;2023-03-26T20:59:22;99028.53;;;10.95;46.00
62942;BME280;49042;47.318;19.874;2023-03-26T21:02:27;99018.97;;;10.99;46.19
62942;BME280;49042;47.318;19.874;2023-03-26T21:05:29;99016.38;;;10.99;46.63
62942;BME280;49042;47.318;19.874;2023-03-26T21:08:31;99008.53;;;11.03;46.74
62942;BME280;49042;47.318;19.874;2023-03-26T21:11:59;99000.72;;;11.02;47.37
62942;BME280;49042;47.318;19.874;2023-03-26T21:15:02;98988.56;;;11.04;47.20
62942;BME280;49042;47.318;19.874;2023-03-26T21:18:17;98999.00;;;11.04;47.32
62942;BME280;49042;47.318;19.874;2023-03-26T21:24:23;98985.00;;;10.91;48.29
62942;BME280;49042;47.318;19.874;2023-03-26T21:30:38;98987.50;;;10.75;49.07
62942;BME280;49042;47.318;19.874;2023-03-26T21:33:40;98987.37;;;10.58;50.26
62942;BME280;49042;47.318;19.874;2023-03-26T21:36:43;98981.13;;;10.37;51.39
62942;BME280;49042;47.318;19.874;2023-03-26T21:39:45;98978.41;;;10.24;52.34
62942;BME280;49042;47.318;19.874;2023-03-26T21:42:51;98981.81;;;10.15;53.29
62942;BME280;49042;47.318;19.874;2023-03-26T21:45:55;98989.50;;;10.04;53.65
62942;BME280;49042;47.318;19.874;2023-03-26T21:48:58;98979.94;;;10.02;54.59
62942;BME280;49042;47.318;19.874;2023-03-26T21:51:59;98978.09;;;9.88;55.96
62942;BME280;49042;47.318;19.874;2023-03-26T21:55:02;98975.38;;;9.77;56.63
62942;BME280;49042;47.318;19.874;2023-03-26T21:58:29;98976.22;;;9.74;57.33